Impacts TAF Board
For situational awareness. Not to be used for flight planning purposes.
IDs:

KJST - Johnstown/Murtha Arp, PA, US

Issued at 1622 UTC 03 Dec 2021
Updated at 1654 UTC 03 Dec 2021
Potential Impact None Slight Moderate High
Time1554Z 03/17Z 03/18Z 03/19Z 03/20Z 03/21Z 03/22Z 03/23Z 04/00Z 04/01Z 04/02Z 04/03Z 04/04Z 04/05Z>>
Type OBS PRVL PRVL PRVL PRVL PRVL PRVL PRVL PRVL PRVL PRVL PRVL PRVL PRVL
VIS 10 >6 >6 >6 >6 >6 >6 >6 >6 >6 >6 >6 >6 >6
CIG 110 100 100 50 50 50 50 50 28 28 28 28 28 28
Cover BKN BKN BKN OVC OVC OVC OVC OVC OVC OVC OVC OVC OVC OVC
FltCat VFR VFR VFR VFR VFR VFR VFR VFR MVFR MVFR MVFR MVFR MVFR MVFR
WX -- -- -- -- -- -- -- -- -- -- -- -- -- --
WDir 300 310 310 280 280 280 280 280 VRB VRB VRB VRB VRB VRB
WSpd 18 15 15 11 11 11 11 11 4 4 4 4 4 4
WGst -- 24 24 18 18 18 18 18 -- -- -- -- -- --
WSHgt -- -- -- -- -- -- -- -- -- -- -- -- -- --
WSDir -- -- -- -- -- -- -- -- -- -- -- -- -- --
WSSpd -- -- -- -- -- -- -- -- -- -- -- -- -- --
Raw TAF
KJST 031622Z 0316/0412 31015G24KT P6SM SCT024 BKN100
  FM031900 28011G18KT P6SM BKN050 OVC100
  FM040000 VRB04KT P6SM BKN028 OVC050


Raw METAR
KJST 031554Z AUTO 30018KT 10SM FEW024 BKN110 03/M03 A3002 RMK AO2 SLP182 T00281033
KJST 031536Z AUTO 31014KT 10SM FEW022 SCT027 BKN120 03/M03 A3001 RMK AO2 PRESFR T00281033
KJST 031454Z AUTO 32014G24KT 10SM BKN022 BKN110 03/M03 A3003 RMK AO2 RAB1358E30 SLP185 P0000 60000 T00281033 51025
KJST 031354Z AUTO 30012G23KT 10SM BKN025 02/M03 A3001 RMK AO2 SLP175 T00221033

METAR Board
Radar Display
Forecast Discussion
For situational awareness. Not to be used for flight planning purposes.